Centerville, Washington
Current Conditions -  °F | °C
As of 7:53 AM on Monday 24 Nov 2014 (Local Time) from KDLS Reporting Station
Clear Clear  
Wind Chill: 38°   Ceiling: Unl
Heat Index: 38°   Visibility: 10mi
Dew Point: 34°   Wind: 0mph
Humidity: 86%   Direction: NA
Pressure: 30.4"   Gusts: NA
Location:  45.75°N, 120.91°W
Report Text: KDLS 241553Z AUTO 00000KT 10SM CLR 03/01 A3040 RMK AO2 SLP298 T00330011
Loading
Personal Weather Stations






























Interactive Weather Map New forecast layout! Learn more

10-Day Weather Forecast

Advertisements
Track Severe Weather on mobile